createdAt,value
2023-06-08T00:01:31.058Z,14.23
2023-06-08T00:06:34.737Z,13.37
2023-06-08T00:11:38.204Z,9.20
2023-06-08T00:16:41.797Z,9.83
2023-06-08T00:21:45.822Z,8.80
2023-06-08T00:26:48.679Z,7.47
2023-06-08T00:31:51.656Z,10.87
2023-06-08T00:36:54.555Z,11.03
2023-06-08T00:41:57.343Z,9.43
2023-06-08T00:47:00.854Z,11.50
2023-06-08T00:52:04.465Z,11.40
2023-06-08T00:57:07.707Z,11.93
2023-06-08T01:02:10.639Z,12.40
2023-06-08T01:07:31.442Z,12.63
2023-06-08T01:12:45.769Z,11.47
2023-06-08T01:17:58.621Z,14.33
2023-06-08T01:23:21.852Z,11.20
2023-06-08T01:28:24.971Z,13.10
2023-06-08T01:33:30.054Z,12.37
2023-06-08T01:39:10.619Z,11.03
2023-06-08T01:44:17.807Z,11.23
2023-06-08T01:49:21.424Z,10.53
2023-06-08T01:54:24.457Z,12.00
2023-06-08T01:59:27.279Z,8.33
2023-06-08T02:04:30.075Z,10.50
2023-06-08T02:09:32.866Z,10.07
2023-06-08T02:14:36.375Z,12.80
2023-06-08T02:19:39.179Z,11.30
2023-06-08T02:24:43.687Z,8.90
2023-06-08T02:29:46.470Z,9.50
2023-06-08T02:34:56.864Z,10.97
2023-06-08T02:39:59.690Z,10.13
2023-06-08T02:45:02.725Z,10.67
2023-06-08T02:50:06.300Z,8.40
2023-06-08T02:55:09.494Z,8.13
2023-06-08T03:00:14.375Z,8.23
2023-06-08T03:05:17.258Z,9.87
2023-06-08T03:10:20.409Z,12.70
2023-06-08T03:15:25.847Z,12.40
2023-06-08T03:20:28.671Z,9.60
2023-06-08T03:25:31.837Z,8.77
2023-06-08T03:30:34.650Z,14.40
2023-06-08T03:35:37.935Z,10.60
2023-06-08T03:40:40.801Z,12.43
2023-06-08T03:45:43.654Z,11.03
2023-06-08T03:50:46.483Z,11.07
2023-06-08T03:55:49.301Z,9.43
2023-06-08T04:00:52.117Z,11.20
2023-06-08T04:05:55.321Z,11.37
2023-06-08T04:10:58.837Z,12.53
2023-06-08T04:16:02.169Z,10.27
2023-06-08T04:21:06.860Z,10.17
2023-06-08T04:26:09.717Z,8.97
2023-06-08T04:31:12.844Z,9.83
2023-06-08T04:36:15.764Z,17.53
2023-06-08T04:41:20.050Z,9.70
2023-06-08T04:46:27.082Z,8.77
2023-06-08T04:51:31.140Z,10.50
2023-06-08T04:56:34.649Z,8.33
2023-06-08T05:01:37.796Z,8.17
2023-06-08T05:06:40.760Z,7.63
2023-06-08T05:11:43.520Z,8.53
2023-06-08T05:16:46.395Z,7.63
2023-06-08T05:21:49.209Z,12.57
2023-06-08T05:26:52.088Z,6.57
2023-06-08T05:31:54.944Z,6.23
2023-06-08T05:36:57.772Z,6.57
2023-06-08T05:42:00.668Z,6.30
2023-06-08T05:47:04.037Z,4.70
2023-06-08T05:52:07.041Z,5.87
2023-06-08T05:57:09.797Z,6.73
2023-06-08T06:02:12.616Z,5.40
2023-06-08T06:07:15.646Z,3.85
2023-06-08T06:12:18.469Z,5.17
2023-06-08T06:17:21.754Z,5.17
2023-06-08T06:22:24.676Z,3.97
2023-06-08T06:27:27.471Z,4.28
2023-06-08T06:32:30.493Z,4.95
2023-06-08T06:37:35.685Z,4.72
2023-06-08T06:42:38.639Z,3.25
2023-06-08T06:47:41.504Z,3.75
2023-06-08T06:52:44.492Z,4.50
2023-06-08T06:57:49.633Z,3.47
2023-06-08T07:02:52.885Z,3.72
2023-06-08T07:07:55.852Z,4.60
2023-06-08T07:12:59.215Z,3.83
2023-06-08T07:18:02.062Z,3.90
2023-06-08T07:23:21.644Z,4.05
2023-06-08T07:28:27.620Z,2.75
2023-06-08T07:33:30.548Z,3.35
2023-06-08T07:38:33.319Z,2.33
2023-06-08T07:43:36.560Z,4.57
2023-06-08T07:48:39.364Z,3.22
2023-06-08T07:53:42.331Z,3.58
2023-06-08T07:58:45.084Z,2.65
2023-06-08T08:03:48.057Z,3.35
2023-06-08T08:08:51.076Z,3.97
2023-06-08T08:13:54.034Z,5.00
2023-06-08T08:18:56.780Z,3.85
2023-06-08T08:23:59.751Z,4.93
2023-06-08T08:29:02.685Z,4.75
2023-06-08T08:34:05.949Z,4.35
2023-06-08T08:39:10.589Z,4.82
2023-06-08T08:44:19.179Z,2.97
2023-06-08T08:49:23.598Z,4.72
2023-06-08T08:54:32.838Z,4.47
2023-06-08T08:59:37.149Z,4.40
2023-06-08T09:04:40.249Z,3.75
2023-06-08T09:10:23.401Z,5.35
2023-06-08T09:15:29.068Z,4.18
2023-06-08T09:20:33.639Z,7.82
2023-06-08T09:25:38.421Z,4.00
2023-06-08T09:30:41.568Z,3.63
2023-06-08T09:35:44.415Z,5.78
2023-06-08T09:40:48.029Z,6.03
2023-06-08T09:45:50.815Z,5.38
2023-06-08T09:51:03.762Z,5.25
2023-06-08T09:56:07.842Z,5.85
2023-06-08T10:01:11.312Z,5.25
2023-06-08T10:06:14.227Z,5.03
2023-06-08T10:11:17.454Z,4.88
2023-06-08T10:16:20.758Z,5.90
2023-06-08T10:21:23.643Z,5.85
2023-06-08T10:26:27.551Z,6.45
2023-06-08T10:31:35.337Z,8.35
2023-06-08T10:36:40.798Z,9.57
2023-06-08T10:41:59.688Z,5.00
2023-06-08T10:47:10.229Z,4.72
2023-06-08T10:52:21.572Z,5.10
2023-06-08T10:57:46.289Z,4.90
2023-06-08T11:02:53.654Z,8.45
2023-06-08T11:07:57.449Z,5.28
2023-06-08T11:13:17.546Z,5.72
2023-06-08T11:18:21.847Z,7.28
2023-06-08T11:23:24.781Z,6.70
2023-06-08T11:28:27.608Z,8.45
2023-06-08T11:33:30.399Z,6.20
2023-06-08T11:38:35.402Z,5.72
2023-06-08T11:43:38.287Z,4.45
2023-06-08T11:48:41.878Z,4.68
2023-06-08T11:53:47.073Z,5.55
2023-06-08T11:58:50.062Z,4.95
2023-06-08T12:03:53.093Z,5.20
2023-06-08T12:08:56.433Z,4.13
2023-06-08T12:13:59.326Z,4.15
2023-06-08T12:19:07.327Z,3.80
2023-06-08T12:24:12.276Z,2.97
2023-06-08T12:29:15.492Z,4.75
2023-06-08T12:34:18.730Z,3.60
2023-06-08T12:39:21.638Z,4.43
2023-06-08T12:44:25.281Z,2.92
2023-06-08T12:49:28.188Z,5.63
2023-06-08T12:54:30.947Z,3.78
2023-06-08T12:59:35.692Z,3.88
2023-06-08T13:04:38.601Z,5.97
2023-06-08T13:09:42.017Z,4.72
2023-06-08T13:14:44.862Z,5.32
2023-06-08T13:19:47.725Z,5.05
2023-06-08T13:24:51.036Z,5.88
2023-06-08T13:29:53.976Z,3.58
2023-06-08T13:34:57.602Z,5.07
2023-06-08T13:40:00.538Z,5.13
2023-06-08T13:45:03.554Z,4.80
2023-06-08T13:50:08.615Z,6.68
2023-06-08T13:55:11.875Z,4.93
2023-06-08T14:00:15.356Z,10.23
2023-06-08T14:05:21.791Z,5.75
2023-06-08T14:10:25.044Z,4.60
2023-06-08T14:15:27.896Z,4.15
2023-06-08T14:20:32.907Z,3.83
2023-06-08T14:25:37.449Z,5.03
2023-06-08T14:30:41.428Z,4.97
2023-06-08T14:35:44.306Z,4.80
2023-06-08T14:40:47.139Z,5.65
2023-06-08T14:45:50.385Z,4.68
2023-06-08T14:50:55.232Z,4.93
2023-06-08T14:55:59.712Z,6.00
2023-06-08T15:01:02.637Z,6.13
2023-06-08T15:06:05.493Z,4.53
2023-06-08T15:11:08.412Z,4.40
2023-06-08T15:16:12.384Z,3.35
2023-06-08T15:21:15.445Z,4.53
2023-06-08T15:26:18.529Z,4.75
2023-06-08T15:31:22.930Z,4.15
2023-06-08T15:36:25.973Z,3.40
2023-06-08T15:41:28.896Z,5.70
2023-06-08T15:46:32.020Z,4.43
2023-06-08T15:51:34.801Z,5.55
2023-06-08T15:56:37.818Z,8.45
2023-06-08T16:01:40.567Z,6.43
2023-06-08T16:06:44.053Z,4.68
2023-06-08T16:11:46.977Z,6.70
2023-06-08T16:16:49.803Z,5.35
2023-06-08T16:21:52.993Z,4.88
2023-06-08T16:26:56.728Z,3.83
2023-06-08T16:31:59.708Z,8.98
2023-06-08T16:37:02.794Z,7.78
2023-06-08T16:42:06.800Z,9.68
2023-06-08T16:47:09.680Z,3.80
2023-06-08T16:52:12.913Z,4.60
2023-06-08T16:57:15.797Z,6.07
2023-06-08T17:02:18.643Z,5.20
2023-06-08T17:07:21.877Z,7.68
2023-06-08T17:12:24.697Z,4.95
2023-06-08T17:17:27.484Z,5.25
2023-06-08T17:22:30.389Z,4.93
2023-06-08T17:27:33.216Z,5.47
2023-06-08T17:32:36.177Z,8.15
2023-06-08T17:37:39.089Z,5.70
2023-06-08T17:42:42.288Z,6.30
2023-06-08T17:47:45.061Z,6.63
2023-06-08T17:53:06.728Z,6.05
2023-06-08T17:58:09.955Z,5.32
2023-06-08T18:03:13.272Z,6.65
2023-06-08T18:08:17.778Z,4.30
2023-06-08T18:13:20.570Z,5.13
2023-06-08T18:18:23.430Z,7.32
2023-06-08T18:23:26.356Z,5.00
2023-06-08T18:28:29.311Z,5.35
2023-06-08T18:33:32.233Z,5.78
2023-06-08T18:38:35.109Z,7.30
2023-06-08T18:43:37.909Z,6.20
2023-06-08T18:48:40.878Z,6.32
2023-06-08T18:53:44.333Z,6.32
2023-06-08T18:58:47.268Z,6.32
2023-06-08T19:03:50.284Z,7.22
2023-06-08T19:08:53.476Z,5.18
2023-06-08T19:13:56.386Z,6.93
2023-06-08T19:19:01.457Z,5.50
2023-06-08T19:24:05.381Z,5.30
2023-06-08T19:29:08.747Z,5.05
2023-06-08T19:34:12.206Z,5.70
2023-06-08T19:39:15.170Z,5.68
2023-06-08T19:44:21.580Z,5.45
2023-06-08T19:49:25.679Z,6.47
2023-06-08T19:54:30.138Z,5.35
2023-06-08T19:59:34.039Z,5.95
2023-06-08T20:04:36.928Z,6.72
2023-06-08T20:09:40.590Z,7.18
2023-06-08T20:14:43.460Z,13.38
2023-06-08T20:19:46.990Z,4.93
2023-06-08T20:24:49.916Z,7.05
2023-06-08T20:29:53.733Z,11.50
2023-06-08T20:34:57.013Z,7.45
2023-06-08T20:39:59.805Z,7.07
2023-06-08T20:45:02.891Z,6.03
2023-06-08T20:50:06.577Z,6.25
2023-06-08T20:55:10.334Z,7.88
2023-06-08T21:00:14.256Z,7.43
2023-06-08T21:05:21.372Z,11.05
2023-06-08T21:10:24.459Z,9.75
2023-06-08T21:15:27.269Z,6.68
2023-06-08T21:20:30.651Z,6.78
2023-06-08T21:25:33.485Z,8.27
2023-06-08T21:30:36.387Z,6.13
2023-06-08T21:35:39.176Z,7.40
2023-06-08T21:40:42.071Z,7.85
2023-06-08T21:45:44.924Z,7.20
2023-06-08T21:50:47.700Z,7.10
2023-06-08T21:55:50.653Z,7.00
2023-06-08T22:00:53.520Z,7.97
2023-06-08T22:05:56.550Z,10.05
2023-06-08T22:10:59.471Z,9.93
2023-06-08T22:16:03.019Z,8.57
2023-06-08T22:21:06.866Z,7.45
2023-06-08T22:26:09.678Z,7.47
2023-06-08T22:31:14.822Z,9.43
2023-06-08T22:36:17.891Z,10.27
2023-06-08T22:41:21.176Z,10.17
2023-06-08T22:46:24.138Z,8.88
2023-06-08T22:51:30.830Z,8.03
2023-06-08T22:56:33.724Z,7.35
2023-06-08T23:01:36.637Z,9.87
2023-06-08T23:06:39.418Z,9.43
2023-06-08T23:11:42.276Z,8.77
2023-06-08T23:16:45.080Z,9.00
2023-06-08T23:21:47.889Z,8.75
2023-06-08T23:26:50.675Z,10.93
2023-06-08T23:31:53.604Z,8.55
2023-06-08T23:36:56.790Z,14.27
2023-06-08T23:41:59.649Z,8.30
2023-06-08T23:47:03.700Z,10.63
2023-06-08T23:52:07.308Z,6.87
2023-06-08T23:57:11.306Z,8.07
